createdAt,value
2023-05-19T00:03:04.490Z,10.58
2023-05-19T00:08:22.912Z,10.52
2023-05-19T00:13:32.471Z,10.45
2023-05-19T00:19:26.657Z,10.35
2023-05-19T00:24:41.614Z,10.32
2023-05-19T00:30:17.252Z,10.29
2023-05-19T00:35:50.034Z,10.24
2023-05-19T00:41:08.051Z,10.18
2023-05-19T00:46:11.134Z,10.14
2023-05-19T00:51:35.232Z,10.16
2023-05-19T00:57:39.416Z,10.16
2023-05-19T01:04:11.983Z,10.14
2023-05-19T01:09:58.950Z,10.04
2023-05-19T01:15:33.580Z,10.11
2023-05-19T01:21:02.689Z,10.06
2023-05-19T01:27:18.825Z,10.04
2023-05-19T01:33:08.405Z,10.03
2023-05-19T01:38:46.165Z,10.01
2023-05-19T01:44:06.675Z,9.95
2023-05-19T01:49:33.937Z,9.87
2023-05-19T01:54:57.295Z,9.91
2023-05-19T02:00:56.186Z,9.89
2023-05-19T02:07:11.308Z,9.96
2023-05-19T02:12:44.518Z,9.98
2023-05-19T02:18:11.874Z,9.94
2023-05-19T02:23:31.661Z,9.94
2023-05-19T02:29:20.858Z,9.97
2023-05-19T02:34:32.334Z,9.96
2023-05-19T02:40:15.576Z,9.95
2023-05-19T02:45:43.493Z,9.90
2023-05-19T02:51:12.019Z,9.93
2023-05-19T02:57:16.672Z,9.95
2023-05-19T03:02:45.961Z,9.92
2023-05-19T03:08:17.846Z,9.87
2023-05-19T03:13:46.526Z,9.91
2023-05-19T03:19:00.169Z,9.85
2023-05-19T03:24:26.359Z,9.81
2023-05-19T03:29:37.341Z,9.87
2023-05-19T03:34:53.032Z,9.92
2023-05-19T03:40:16.027Z,10.04
2023-05-19T03:45:53.029Z,10.10
2023-05-19T03:51:49.837Z,10.19
2023-05-19T03:57:34.538Z,10.26
2023-05-19T04:03:10.092Z,10.38
2023-05-19T04:08:51.466Z,10.47
2023-05-19T04:14:28.788Z,10.57
2023-05-19T04:19:59.216Z,10.68
2023-05-19T04:25:23.923Z,10.74
2023-05-19T04:31:01.659Z,10.80
2023-05-19T04:36:39.467Z,10.87
2023-05-19T04:41:59.462Z,10.93
2023-05-19T04:47:15.811Z,11.07
2023-05-19T04:52:36.923Z,11.20
2023-05-19T04:58:09.223Z,11.22
2023-05-19T05:03:55.322Z,11.12
2023-05-19T05:09:27.710Z,11.22
2023-05-19T05:14:46.635Z,11.35
2023-05-19T05:20:11.921Z,11.56
2023-05-19T05:25:39.405Z,11.78
2023-05-19T05:31:03.162Z,11.99
2023-05-19T05:36:30.737Z,12.26
2023-05-19T05:42:13.735Z,12.46
2023-05-19T05:47:59.092Z,12.52
2023-05-19T05:53:18.277Z,12.61
2023-05-19T05:58:47.683Z,12.58
2023-05-19T06:04:05.537Z,12.57
2023-05-19T06:09:12.452Z,12.66
2023-05-19T06:14:32.167Z,12.76
2023-05-19T06:20:24.552Z,12.84
2023-05-19T06:26:16.829Z,12.92
2023-05-19T06:31:41.109Z,13.09
2023-05-19T06:37:06.919Z,13.24
2023-05-19T06:43:11.804Z,13.30
2023-05-19T06:49:29.346Z,13.42
2023-05-19T06:54:56.785Z,13.53
2023-05-19T07:00:31.812Z,13.60
2023-05-19T07:06:29.736Z,13.70
2023-05-19T07:12:11.771Z,13.82
2023-05-19T07:17:35.273Z,13.92
2023-05-19T07:22:41.113Z,14.10
2023-05-19T07:27:52.420Z,14.23
2023-05-19T07:33:21.344Z,14.20
2023-05-19T07:38:37.545Z,14.18
2023-05-19T07:44:01.189Z,14.26
2023-05-19T07:49:15.808Z,14.27
2023-05-19T07:54:23.314Z,14.47
2023-05-19T07:59:32.194Z,14.67
2023-05-19T08:04:38.928Z,14.93
2023-05-19T08:09:55.448Z,15.29
2023-05-19T08:15:26.144Z,15.62
2023-05-19T08:20:48.759Z,15.93
2023-05-19T08:26:09.202Z,16.10
2023-05-19T08:31:16.853Z,16.23
2023-05-19T08:36:45.311Z,16.21
2023-05-19T08:42:07.968Z,16.27
2023-05-19T08:47:28.792Z,16.56
2023-05-19T08:53:41.901Z,16.87
2023-05-19T08:59:00.327Z,17.34
2023-05-19T09:04:17.425Z,17.48
2023-05-19T09:09:33.040Z,17.80
2023-05-19T09:15:01.277Z,18.08
2023-05-19T09:20:21.590Z,18.24
2023-05-19T09:25:27.498Z,18.17
2023-05-19T09:30:41.547Z,18.14
2023-05-19T09:36:00.731Z,18.18
2023-05-19T09:41:07.218Z,18.28
2023-05-19T09:46:26.662Z,18.24
2023-05-19T09:51:39.385Z,17.97
2023-05-19T09:57:27.756Z,17.77
2023-05-19T10:02:41.365Z,17.60
2023-05-19T10:08:02.980Z,17.48
2023-05-19T10:13:08.975Z,17.50
2023-05-19T10:18:21.863Z,17.65
2023-05-19T10:23:42.138Z,17.83
2023-05-19T10:29:00.621Z,18.03
2023-05-19T10:35:00.954Z,18.28
2023-05-19T10:40:30.358Z,18.79
2023-05-19T10:45:57.334Z,19.22
2023-05-19T10:51:49.992Z,19.31
2023-05-19T10:58:17.893Z,19.51
2023-05-19T11:04:10.584Z,19.69
2023-05-19T11:10:04.169Z,19.84
2023-05-19T11:15:58.417Z,20.02
2023-05-19T11:22:37.032Z,20.13
2023-05-19T11:28:32.436Z,20.17
2023-05-19T11:34:10.720Z,20.19
2023-05-19T11:39:47.268Z,20.29
2023-05-19T11:45:35.700Z,20.28
2023-05-19T11:50:56.842Z,20.01
2023-05-19T11:56:15.150Z,19.98
2023-05-19T12:01:43.508Z,19.67
2023-05-19T12:07:01.679Z,19.40
2023-05-19T12:12:45.233Z,19.38
2023-05-19T12:18:06.832Z,19.31
2023-05-19T12:23:32.578Z,19.29
2023-05-19T12:29:06.726Z,19.15
2023-05-19T12:34:26.354Z,19.14
2023-05-19T12:40:03.597Z,19.17
2023-05-19T12:45:27.858Z,19.17
2023-05-19T12:50:47.724Z,19.15
2023-05-19T12:56:25.197Z,19.19
2023-05-19T13:01:29.862Z,19.20
2023-05-19T13:06:33.744Z,19.20
2023-05-19T13:11:36.423Z,19.26
2023-05-19T13:16:43.599Z,19.35
2023-05-19T13:21:53.804Z,19.33
2023-05-19T13:27:32.776Z,19.36
2023-05-19T13:33:02.869Z,19.22
2023-05-19T13:38:34.474Z,19.14
2023-05-19T13:44:07.282Z,19.14
2023-05-19T13:49:32.918Z,19.24
2023-05-19T13:55:23.295Z,19.17
2023-05-19T14:00:45.107Z,19.20
2023-05-19T14:06:18.809Z,19.10
2023-05-19T14:11:28.349Z,18.75
2023-05-19T14:16:43.211Z,18.75
2023-05-19T14:22:06.830Z,18.92
2023-05-19T14:27:22.721Z,18.93
2023-05-19T14:32:31.310Z,19.06
2023-05-19T14:37:45.178Z,19.08
2023-05-19T14:42:55.769Z,19.13
2023-05-19T14:48:17.624Z,19.20
2023-05-19T14:53:40.343Z,19.24
2023-05-19T14:58:58.694Z,19.16
2023-05-19T15:04:33.033Z,19.15
2023-05-19T15:09:53.039Z,19.05
2023-05-19T15:15:06.366Z,19.02
2023-05-19T15:20:13.852Z,18.99
2023-05-19T15:25:44.092Z,18.85
2023-05-19T15:30:48.592Z,18.73
2023-05-19T15:36:11.229Z,18.69
2023-05-19T15:41:17.853Z,18.52
2023-05-19T15:46:44.373Z,18.29
2023-05-19T15:51:53.479Z,18.10
2023-05-19T15:57:02.411Z,17.97
2023-05-19T16:02:08.717Z,17.91
2023-05-19T16:07:14.435Z,17.84
2023-05-19T16:12:46.707Z,17.75
2023-05-19T16:18:01.336Z,17.65
2023-05-19T16:23:06.857Z,17.52
2023-05-19T16:28:24.986Z,17.37
2023-05-19T16:33:46.316Z,17.23
2023-05-19T16:38:58.808Z,17.00
2023-05-19T16:44:08.732Z,16.83
2023-05-19T16:49:25.084Z,16.69
2023-05-19T16:54:54.295Z,16.51
2023-05-19T16:59:56.836Z,16.42
2023-05-19T17:05:07.097Z,16.26
2023-05-19T17:10:38.524Z,16.16
2023-05-19T17:16:24.613Z,16.07
2023-05-19T17:21:43.054Z,15.93
2023-05-19T17:27:12.477Z,15.74
2023-05-19T17:33:11.013Z,15.61
2023-05-19T17:38:29.276Z,15.53
2023-05-19T17:43:44.593Z,15.46
2023-05-19T17:48:52.721Z,15.39
2023-05-19T17:54:26.340Z,15.29
2023-05-19T17:59:53.714Z,15.19
2023-05-19T18:05:21.568Z,15.05
2023-05-19T18:11:04.567Z,15.00
2023-05-19T18:16:31.507Z,14.93
2023-05-19T18:21:42.756Z,14.83
2023-05-19T18:26:59.480Z,14.78
2023-05-19T18:32:14.623Z,14.73
2023-05-19T18:37:31.540Z,14.65
2023-05-19T18:43:07.444Z,14.60
2023-05-19T18:48:33.624Z,14.56
2023-05-19T18:54:24.815Z,14.44
2023-05-19T18:59:32.255Z,14.35
2023-05-19T19:05:05.458Z,14.25
2023-05-19T19:10:16.188Z,14.22
2023-05-19T19:15:25.526Z,14.22
2023-05-19T19:20:47.107Z,14.22
2023-05-19T19:26:08.587Z,14.15
2023-05-19T19:31:14.383Z,14.08
2023-05-19T19:36:39.603Z,14.07
2023-05-19T19:42:18.618Z,14.01
2023-05-19T19:47:30.098Z,13.90
2023-05-19T19:52:42.453Z,13.83
2023-05-19T19:57:51.387Z,13.77
2023-05-19T20:08:09.747Z,13.78
2023-05-19T20:13:15.584Z,13.72
2023-05-19T20:18:34.297Z,13.69
2023-05-19T20:24:00.405Z,13.69
2023-05-19T20:29:11.325Z,13.56
2023-05-19T20:34:24.360Z,13.48
2023-05-19T20:39:53.451Z,13.43
2023-05-19T20:45:14.353Z,13.34
2023-05-19T20:50:21.762Z,13.34
2023-05-19T20:55:38.439Z,13.30
2023-05-19T21:01:04.564Z,13.28
2023-05-19T21:06:38.207Z,13.27
2023-05-19T21:11:48.986Z,13.29
2023-05-19T21:17:01.660Z,13.29
2023-05-19T21:22:05.036Z,13.24
2023-05-19T21:27:13.481Z,13.26
2023-05-19T21:32:16.838Z,13.27
2023-05-19T21:37:41.952Z,13.27
2023-05-19T21:43:06.086Z,13.25
2023-05-19T21:48:16.643Z,13.26
2023-05-19T21:53:19.323Z,13.33
2023-05-19T21:58:26.914Z,13.34
2023-05-19T22:03:34.622Z,13.35
2023-05-19T22:08:48.018Z,13.35
2023-05-19T22:14:00.435Z,13.29
2023-05-19T22:19:05.665Z,13.31
2023-05-19T22:24:19.505Z,13.29
2023-05-19T22:29:46.866Z,13.22
2023-05-19T22:34:59.029Z,13.17
2023-05-19T22:40:16.643Z,13.14
2023-05-19T22:45:38.103Z,13.11
2023-05-19T22:51:01.519Z,13.10
2023-05-19T22:56:34.173Z,13.08
2023-05-19T23:01:47.734Z,13.05
2023-05-19T23:07:14.943Z,13.01
2023-05-19T23:12:40.587Z,12.94
2023-05-19T23:18:20.686Z,12.93
2023-05-19T23:23:36.072Z,12.95
2023-05-19T23:29:20.315Z,12.88
2023-05-19T23:34:31.191Z,12.87
2023-05-19T23:40:00.012Z,12.83
2023-05-19T23:45:26.876Z,12.82
2023-05-19T23:51:13.598Z,12.76
2023-05-19T23:57:15.917Z,12.77
